»·PEaware :: N64267 KVNY-KAVX

N64267 :: KVNY-KAVX

FLIGHT INFORMATION

Flight Status: Arrived
Operator: Privately registered:
United States
More flights under this callsign
Pilot: ActivePILOT (17633)
Aircraft: CESSNA 172 SKYHAWK
(C172)
More flights by this aircraft type
Origin: KVNY Van Nuys
United States
Destination: KAVX Catalina
United States
More flights between these airports :: More routes between these airports
Route: +
File this flight plan on PilotEdge
Remarks:
Altitude:
(Current/Filed)
0ft
Speed:
(Current/Filed)
0kts
Departed: 07-Mar-18 07:19 PM
Arrived: 07-Mar-18 08:00 PM
Distance/Time
Traveled:
49nm/0:41
Distance/Time
To Go:
Arrived

Flight Plot

Page will automatically refresh every two minutes.

Flight plan parsing failed; only flown route is shown


Map Options




Map Legend


Flown Route
Filed Route
Departure Airport
Arrival Airport
Navaid (VOR, NDB)
Fix

Horizontal Profiles

Position Reports

Time Latitude Longitude Heading Altitude Ground
Speed
07-Mar-18 19:19 34.217023 -118.495890 188 777ft 0kts
07-Mar-18 19:20 34.217023 -118.495890 188 777ft 0kts
07-Mar-18 19:21 34.217022 -118.495890 188 777ft 0kts
07-Mar-18 19:22 34.217022 -118.495890 188 777ft 0kts
07-Mar-18 19:23 34.216343 -118.493070 95 777ft 13kts
07-Mar-18 19:24 34.218741 -118.492061 76 777ft 0kts
07-Mar-18 19:25 34.218503 -118.491313 163 777ft 8kts
07-Mar-18 19:26 34.200772 -118.488830 164 1145ft 87kts
07-Mar-18 19:27 34.177394 -118.482098 179 1876ft 89kts
07-Mar-18 19:28 34.153134 -118.478034 166 2599ft 88kts
07-Mar-18 19:29 34.130020 -118.466851 157 3222ft 91kts
07-Mar-18 19:30 34.106427 -118.453781 156 3544ft 111kts
07-Mar-18 19:31 34.079038 -118.443808 163 3433ft 103kts
07-Mar-18 19:32 34.052897 -118.431023 168 3247ft 99kts
07-Mar-18 19:33 34.027019 -118.423162 169 3519ft 97kts
07-Mar-18 19:34 33.999006 -118.411697 159 3420ft 109kts
07-Mar-18 19:35 33.972201 -118.396758 153 3471ft 103kts
07-Mar-18 19:36 33.945338 -118.382576 154 3483ft 103kts
07-Mar-18 19:37 33.917866 -118.372106 169 3517ft 105kts
07-Mar-18 19:38 33.888108 -118.367713 184 3472ft 102kts
07-Mar-18 19:39 33.859460 -118.370118 184 3443ft 109kts
07-Mar-18 19:40 33.830813 -118.369068 166 3458ft 106kts
07-Mar-18 19:41 33.802195 -118.371383 199 3489ft 105kts
07-Mar-18 19:42 33.776569 -118.382352 203 3680ft 97kts
07-Mar-18 19:43 33.749659 -118.388367 195 3805ft 98kts
07-Mar-18 19:44 33.721836 -118.394695 186 3720ft 111kts
07-Mar-18 19:45 33.692566 -118.396887 187 3762ft 106kts
07-Mar-18 19:46 33.664687 -118.408412 211 3867ft 123kts
07-Mar-18 19:47 33.635540 -118.403255 178 4374ft 102kts
07-Mar-18 19:48 33.607380 -118.410638 207 4377ft 104kts
07-Mar-18 19:49 33.579525 -118.420548 189 4058ft 105kts
07-Mar-18 19:50 33.552427 -118.417279 151 3602ft 99kts
07-Mar-18 19:51 33.526277 -118.415281 191 3384ft 94kts
07-Mar-18 19:52 33.499569 -118.419882 197 2904ft 96kts
07-Mar-18 19:53 33.469536 -118.428477 193 2668ft 90kts
07-Mar-18 19:54 33.449429 -118.432354 164 2730ft 93kts
07-Mar-18 19:55 33.424520 -118.425733 153 2960ft 98kts
07-Mar-18 19:56 33.405973 -118.437301 258 3208ft 94kts
07-Mar-18 19:57 33.391560 -118.458452 151 3071ft 103kts
07-Mar-18 19:58 33.396900 -118.431398 51 2272ft 86kts
07-Mar-18 19:59 33.408247 -118.412463 29 1762ft 80kts
07-Mar-18 20:00 33.424057 -118.390713 0 1999ft 110kts
07-Mar-18 20:01 33.415292 -118.403479 201 2190ft 90kts
07-Mar-18 20:02 33.404445 -118.427953 254 2403ft 100kts
07-Mar-18 20:03 33.399067 -118.461452 265 2510ft 99kts
07-Mar-18 20:04 33.391028 -118.465866 51 2263ft 97kts
07-Mar-18 20:05 33.396801 -118.440546 87 2058ft 74kts
07-Mar-18 20:06 33.403490 -118.418236 52 1636ft 66kts
07-Mar-18 20:07 33.406978 -118.412411 48 1578ft 9kts
07-Mar-18 20:08 33.406809 -118.411954 237 1577ft 4kts
07-Mar-18 20:09 33.405074 -118.414892 221 1594ft 8kts
07-Mar-18 20:10 33.403481 -118.415215 149 1598ft 0kts
07-Mar-18 20:11 33.403481 -118.415215 149 1598ft 0kts
07-Mar-18 20:12 33.403481 -118.415215 149 1598ft 0kts
07-Mar-18 20:13 33.403481 -118.415215 149 1598ft 0kts
07-Mar-18 20:14 33.403481 -118.415215 149 1598ft 0kts
07-Mar-18 20:15 33.403481 -118.415215 149 1598ft 0kts
07-Mar-18 20:16 33.403481 -118.415215 149 1598ft 0kts
07-Mar-18 20:17 33.403481 -118.415215 149 1598ft 0kts
07-Mar-18 20:18 33.403481 -118.415215 149 1598ft 0kts

Navigation Log

Ident Type
Flight plan parsing failed, navigation log unavailable